createdAt,value
2023-03-01T00:01:22.356Z,100.00
2023-03-01T00:03:49.616Z,100.00
2023-03-01T00:06:16.998Z,100.00
2023-03-01T00:08:43.920Z,100.00
2023-03-01T00:11:13.907Z,100.00
2023-03-01T00:13:42.057Z,100.00
2023-03-01T00:16:14.029Z,100.00
2023-03-01T00:18:41.444Z,100.00
2023-03-01T00:21:08.764Z,100.00
2023-03-01T00:23:36.320Z,100.00
2023-03-01T00:26:07.417Z,100.00
2023-03-01T00:28:35.450Z,100.00
2023-03-01T00:31:10.599Z,100.00
2023-03-01T00:33:37.523Z,100.00
2023-03-01T00:36:05.091Z,100.00
2023-03-01T00:38:35.224Z,100.00
2023-03-01T00:41:10.265Z,100.00
2023-03-01T00:43:40.179Z,100.00
2023-03-01T00:46:15.195Z,100.00
2023-03-01T00:48:42.631Z,100.00
2023-03-01T00:51:13.232Z,100.00
2023-03-01T00:53:40.451Z,100.00
2023-03-01T00:56:09.719Z,100.00
2023-03-01T00:58:36.961Z,100.00
2023-03-01T01:01:20.861Z,100.00
2023-03-01T01:03:50.891Z,100.00
2023-03-01T01:06:23.863Z,100.00
2023-03-01T01:08:51.541Z,100.00
2023-03-01T01:11:19.262Z,100.00
2023-03-01T01:13:48.159Z,100.00
2023-03-01T01:16:16.549Z,100.00
2023-03-01T01:18:44.184Z,100.00
2023-03-01T01:21:14.865Z,100.00
2023-03-01T01:23:43.392Z,100.00
2023-03-01T01:26:11.601Z,100.00
2023-03-01T01:28:38.912Z,100.00
2023-03-01T01:31:06.426Z,100.00
2023-03-01T01:33:34.090Z,100.00
2023-03-01T01:36:01.465Z,100.00
2023-03-01T01:38:28.449Z,100.00
2023-03-01T01:40:55.784Z,100.00
2023-03-01T01:43:26.878Z,100.00
2023-03-01T01:45:58.211Z,100.00
2023-03-01T01:48:41.298Z,100.00
2023-03-01T01:51:18.163Z,100.00
2023-03-01T01:53:47.917Z,100.00
2023-03-01T01:56:18.029Z,100.00
2023-03-01T01:58:45.963Z,100.00
2023-03-01T02:01:13.157Z,100.00
2023-03-01T02:03:43.433Z,100.00
2023-03-01T02:06:30.183Z,100.00
2023-03-01T02:09:03.539Z,100.00
2023-03-01T02:11:33.314Z,100.00
2023-03-01T02:14:00.494Z,100.00
2023-03-01T02:16:28.149Z,100.00
2023-03-01T02:18:55.289Z,100.00
2023-03-01T02:21:25.295Z,100.00
2023-03-01T02:23:52.306Z,100.00
2023-03-01T02:26:46.635Z,100.00
2023-03-01T02:29:13.747Z,100.00
2023-03-01T02:31:43.779Z,100.00
2023-03-01T02:34:17.950Z,100.00
2023-03-01T02:36:56.092Z,100.00
2023-03-01T02:39:27.784Z,100.00
2023-03-01T02:41:57.211Z,100.00
2023-03-01T02:44:24.435Z,100.00
2023-03-01T02:46:55.376Z,100.00
2023-03-01T02:49:26.171Z,100.00
2023-03-01T02:52:09.702Z,100.00
2023-03-01T02:54:45.594Z,100.00
2023-03-01T02:57:13.215Z,100.00
2023-03-01T02:59:41.297Z,100.00
2023-03-01T03:02:21.667Z,100.00
2023-03-01T03:04:48.744Z,100.00
2023-03-01T03:07:15.881Z,100.00
2023-03-01T03:09:42.783Z,100.00
2023-03-01T03:12:10.007Z,100.00
2023-03-01T03:14:36.890Z,100.00
2023-03-01T03:17:07.666Z,100.00
2023-03-01T03:19:34.618Z,100.00
2023-03-01T03:22:02.850Z,100.00
2023-03-01T03:24:29.799Z,100.00
2023-03-01T03:26:56.986Z,100.00
2023-03-01T03:29:23.828Z,100.00
2023-03-01T03:31:51.121Z,100.00
2023-03-01T03:34:19.122Z,100.00
2023-03-01T03:36:46.452Z,100.00
2023-03-01T03:39:13.362Z,100.00
2023-03-01T03:41:40.516Z,100.00
2023-03-01T03:44:07.394Z,100.00
2023-03-01T03:46:34.997Z,100.00
2023-03-01T03:49:01.997Z,100.00
2023-03-01T03:51:29.137Z,100.00
2023-03-01T03:53:56.047Z,100.00
2023-03-01T03:56:28.654Z,100.00
2023-03-01T03:58:55.952Z,100.00
2023-03-01T04:01:23.375Z,100.00
2023-03-01T04:03:55.476Z,100.00
2023-03-01T04:06:22.924Z,100.00
2023-03-01T04:08:52.115Z,100.00
2023-03-01T04:11:28.219Z,100.00
2023-03-01T04:13:58.021Z,100.00
2023-03-01T04:16:26.119Z,100.00
2023-03-01T04:18:57.712Z,100.00
2023-03-01T04:21:24.892Z,100.00
2023-03-01T04:23:53.706Z,100.00
2023-03-01T04:26:21.589Z,100.00
2023-03-01T04:28:50.463Z,100.00
2023-03-01T04:31:22.108Z,100.00
2023-03-01T04:33:54.577Z,100.00
2023-03-01T04:36:27.804Z,100.00
2023-03-01T04:38:55.592Z,100.00
2023-03-01T04:41:25.144Z,100.00
2023-03-01T04:43:52.298Z,100.00
2023-03-01T04:46:21.046Z,100.00
2023-03-01T04:48:48.482Z,100.00
2023-03-01T04:51:16.806Z,100.00
2023-03-01T04:53:44.769Z,100.00
2023-03-01T04:56:12.563Z,100.00
2023-03-01T04:58:39.433Z,100.00
2023-03-01T05:01:16.518Z,100.00
2023-03-01T05:03:45.177Z,100.00
2023-03-01T05:06:12.958Z,100.00
2023-03-01T05:08:40.791Z,100.00
2023-03-01T05:11:10.117Z,100.00
2023-03-01T05:13:39.102Z,100.00
2023-03-01T05:16:08.168Z,100.00
2023-03-01T05:18:36.008Z,100.00
2023-03-01T05:21:09.556Z,100.00
2023-03-01T05:23:37.313Z,100.00
2023-03-01T05:26:09.411Z,100.00
2023-03-01T05:28:38.996Z,100.00
2023-03-01T05:31:10.747Z,100.00
2023-03-01T05:33:39.199Z,100.00
2023-03-01T05:36:08.345Z,100.00
2023-03-01T05:38:35.267Z,100.00
2023-03-01T05:41:02.836Z,100.00
2023-03-01T05:43:35.350Z,100.00
2023-03-01T05:46:02.813Z,100.00
2023-03-01T05:48:30.189Z,100.00
2023-03-01T05:51:01.442Z,100.00
2023-03-01T05:53:28.642Z,100.00
2023-03-01T05:55:55.771Z,100.00
2023-03-01T05:58:22.833Z,100.00
2023-03-01T06:00:50.351Z,100.00
2023-03-01T06:03:18.721Z,100.00
2023-03-01T06:05:46.178Z,100.00
2023-03-01T06:08:14.134Z,100.00
2023-03-01T06:10:41.898Z,100.00
2023-03-01T06:13:09.013Z,100.00
2023-03-01T06:15:36.400Z,100.00
2023-03-01T06:18:03.441Z,100.00
2023-03-01T06:20:30.740Z,100.00
2023-03-01T06:22:58.254Z,100.00
2023-03-01T06:25:27.843Z,100.00
2023-03-01T06:27:54.953Z,99.74
2023-03-01T06:30:24.034Z,99.70
2023-03-01T06:32:51.014Z,97.20
2023-03-01T06:35:19.687Z,91.95
2023-03-01T06:37:48.224Z,89.41
2023-03-01T06:40:17.134Z,88.91
2023-03-01T06:42:48.296Z,88.03
2023-03-01T06:45:16.165Z,83.95
2023-03-01T06:47:43.204Z,79.45
2023-03-01T06:50:11.577Z,79.35
2023-03-01T06:52:38.766Z,75.24
2023-03-01T06:55:06.859Z,74.01
2023-03-01T06:57:33.842Z,73.61
2023-03-01T07:00:01.208Z,73.01
2023-03-01T07:02:28.246Z,72.21
2023-03-01T07:04:55.494Z,72.28
2023-03-01T07:07:22.465Z,70.67
2023-03-01T07:09:50.025Z,67.99
2023-03-01T07:12:17.388Z,66.21
2023-03-01T07:14:45.232Z,62.73
2023-03-01T07:17:12.082Z,60.02
2023-03-01T07:19:39.323Z,58.46
2023-03-01T07:22:08.850Z,57.52
2023-03-01T07:24:36.366Z,58.93
2023-03-01T07:27:03.516Z,59.22
2023-03-01T07:29:31.346Z,55.39
2023-03-01T07:31:58.281Z,55.46
2023-03-01T07:34:25.711Z,54.99
2023-03-01T07:36:53.435Z,56.99
2023-03-01T07:39:20.801Z,58.64
2023-03-01T07:41:47.751Z,60.04
2023-03-01T07:44:14.967Z,57.56
2023-03-01T07:46:42.096Z,55.91
2023-03-01T07:49:09.373Z,49.23
2023-03-01T07:51:36.336Z,48.32
2023-03-01T07:54:03.666Z,47.74
2023-03-01T07:56:30.954Z,46.31
2023-03-01T07:59:00.970Z,44.12
2023-03-01T08:01:28.108Z,43.49
2023-03-01T08:03:55.350Z,40.70
2023-03-01T08:06:22.476Z,39.42
2023-03-01T08:08:49.713Z,35.84
2023-03-01T08:11:17.057Z,36.56
2023-03-01T08:13:44.830Z,32.87
2023-03-01T08:16:15.520Z,31.45
2023-03-01T08:18:44.198Z,31.77
2023-03-01T08:21:17.276Z,30.61
2023-03-01T08:23:44.906Z,29.59
2023-03-01T08:26:15.065Z,28.32
2023-03-01T08:28:43.124Z,28.51
2023-03-01T08:31:29.712Z,26.98
2023-03-01T08:34:00.596Z,26.61
2023-03-01T08:36:34.071Z,25.52
2023-03-01T08:39:01.463Z,25.52
2023-03-01T08:41:28.606Z,24.93
2023-03-01T08:43:59.818Z,24.17
2023-03-01T08:46:32.923Z,23.69
2023-03-01T08:49:00.668Z,23.81
2023-03-01T08:51:28.052Z,24.26
2023-03-01T08:53:55.294Z,24.07
2023-03-01T08:56:22.189Z,23.89
2023-03-01T08:58:50.202Z,23.10
2023-03-01T09:01:19.812Z,23.84
2023-03-01T09:03:47.533Z,24.44
2023-03-01T09:06:15.533Z,24.47
2023-03-01T09:08:45.495Z,23.93
2023-03-01T09:11:16.442Z,23.41
2023-03-01T09:13:44.578Z,23.40
2023-03-01T09:16:14.192Z,23.99
2023-03-01T09:18:44.822Z,24.05
2023-03-01T09:21:17.388Z,23.53
2023-03-01T09:23:46.854Z,24.00
2023-03-01T09:26:22.372Z,23.69
2023-03-01T09:28:52.802Z,23.32
2023-03-01T09:31:24.678Z,22.13
2023-03-01T09:33:56.949Z,21.19
2023-03-01T09:36:31.612Z,22.49
2023-03-01T09:39:00.244Z,22.49
2023-03-01T09:41:47.771Z,22.19
2023-03-01T09:44:37.174Z,21.22
2023-03-01T09:47:04.820Z,21.36
2023-03-01T09:49:40.078Z,21.84
2023-03-01T09:52:39.379Z,19.99
2023-03-01T09:55:17.340Z,21.66
2023-03-01T09:57:52.288Z,21.85
2023-03-01T10:00:48.428Z,21.82
2023-03-01T10:04:12.347Z,21.62
2023-03-01T10:06:51.872Z,20.81
2023-03-01T10:09:19.857Z,20.00
2023-03-01T10:11:51.992Z,19.46
2023-03-01T10:14:33.792Z,20.02
2023-03-01T10:17:26.970Z,20.40
2023-03-01T10:19:53.922Z,19.59
2023-03-01T10:22:30.396Z,19.93
2023-03-01T10:25:04.222Z,19.37
2023-03-01T10:27:48.723Z,20.49
2023-03-01T10:30:36.511Z,20.65
2023-03-01T10:33:20.600Z,19.91
2023-03-01T10:35:49.524Z,20.01
2023-03-01T10:38:20.341Z,20.10
2023-03-01T10:40:53.493Z,20.02
2023-03-01T10:43:21.750Z,20.46
2023-03-01T10:45:49.303Z,19.65
2023-03-01T10:48:28.656Z,19.74
2023-03-01T10:50:58.620Z,20.17
2023-03-01T10:53:30.680Z,19.82
2023-03-01T10:56:01.545Z,20.42
2023-03-01T10:58:29.899Z,19.50
2023-03-01T11:01:05.947Z,19.03
2023-03-01T11:03:38.895Z,19.38
2023-03-01T11:06:12.142Z,19.26
2023-03-01T11:08:48.273Z,19.13
2023-03-01T11:11:36.026Z,19.70
2023-03-01T11:14:26.414Z,19.70
2023-03-01T11:17:04.515Z,18.40
2023-03-01T11:19:32.335Z,18.82
2023-03-01T11:22:05.407Z,18.52
2023-03-01T11:24:42.273Z,17.34
2023-03-01T11:27:32.885Z,18.12
2023-03-01T11:30:00.006Z,19.13
2023-03-01T11:32:34.225Z,18.30
2023-03-01T11:35:11.428Z,18.67
2023-03-01T11:37:45.487Z,19.07
2023-03-01T11:40:18.269Z,18.83
2023-03-01T11:42:51.116Z,18.72
2023-03-01T11:45:18.390Z,18.28
2023-03-01T11:47:57.981Z,19.72
2023-03-01T11:50:39.679Z,19.79
2023-03-01T11:53:27.928Z,20.34
2023-03-01T11:56:26.399Z,20.09
2023-03-01T11:59:30.634Z,20.19
2023-03-01T12:02:06.601Z,20.65
2023-03-01T12:05:11.171Z,19.81
2023-03-01T12:08:05.763Z,20.36
2023-03-01T12:11:01.262Z,20.92
2023-03-01T12:13:34.397Z,21.97
2023-03-01T12:16:13.082Z,22.85
2023-03-01T12:19:02.874Z,23.12
2023-03-01T12:21:43.477Z,22.84
2023-03-01T12:24:30.034Z,22.04
2023-03-01T12:27:34.682Z,21.20
2023-03-01T12:30:23.766Z,20.72
2023-03-01T12:33:15.585Z,21.38
2023-03-01T12:36:15.586Z,22.40
2023-03-01T12:38:44.265Z,21.67
2023-03-01T12:41:20.308Z,21.21
2023-03-01T12:44:02.320Z,22.04
2023-03-01T12:47:00.521Z,22.94
2023-03-01T12:49:37.330Z,22.09
2023-03-01T12:52:30.395Z,21.50
2023-03-01T12:55:02.210Z,22.38
2023-03-01T12:57:41.574Z,21.62
2023-03-01T13:00:36.750Z,22.27
2023-03-01T13:03:22.940Z,21.59
2023-03-01T13:05:55.697Z,22.38
2023-03-01T13:08:34.135Z,22.42
2023-03-01T13:11:04.749Z,23.46
2023-03-01T13:13:32.715Z,22.67
2023-03-01T13:16:22.524Z,22.08
2023-03-01T13:18:49.806Z,22.44
2023-03-01T13:21:31.496Z,22.49
2023-03-01T13:23:58.671Z,21.95
2023-03-01T13:26:25.628Z,22.15
2023-03-01T13:28:58.307Z,22.50
2023-03-01T13:31:48.490Z,23.44
2023-03-01T13:34:53.023Z,23.29
2023-03-01T13:37:27.000Z,22.31
2023-03-01T13:39:54.285Z,22.47
2023-03-01T13:42:38.493Z,23.00
2023-03-01T13:45:19.977Z,22.97
2023-03-01T13:47:50.355Z,22.85
2023-03-01T13:50:22.163Z,22.84
2023-03-01T13:53:06.115Z,22.86
2023-03-01T13:55:44.001Z,22.82
2023-03-01T13:58:31.789Z,23.63
2023-03-01T14:01:08.270Z,22.92
2023-03-01T14:03:42.842Z,23.42
2023-03-01T14:06:19.101Z,23.83
2023-03-01T14:08:50.584Z,24.19
2023-03-01T14:11:39.357Z,24.54
2023-03-01T14:14:21.833Z,25.37
2023-03-01T14:17:14.160Z,26.55
2023-03-01T14:19:45.930Z,27.18
2023-03-01T14:22:26.173Z,26.94
2023-03-01T14:24:56.857Z,26.57
2023-03-01T14:27:45.801Z,28.09
2023-03-01T14:30:20.313Z,30.14
2023-03-01T14:33:07.425Z,30.61
2023-03-01T14:35:36.447Z,31.34
2023-03-01T14:38:03.794Z,32.18
2023-03-01T14:40:37.113Z,32.52
2023-03-01T14:43:12.631Z,33.81
2023-03-01T14:45:39.692Z,34.29
2023-03-01T14:48:08.599Z,35.00
2023-03-01T14:50:37.371Z,35.90
2023-03-01T14:53:08.880Z,37.11
2023-03-01T14:55:39.791Z,37.19
2023-03-01T14:58:12.604Z,37.46
2023-03-01T15:00:44.689Z,38.66
2023-03-01T15:03:26.894Z,38.76
2023-03-01T15:05:54.727Z,39.32
2023-03-01T15:08:25.695Z,39.44
2023-03-01T15:11:02.963Z,39.83
2023-03-01T15:13:35.044Z,40.36
2023-03-01T15:16:10.735Z,40.53
2023-03-01T15:18:38.944Z,41.18
2023-03-01T15:21:30.669Z,41.64
2023-03-01T15:24:20.463Z,41.91
2023-03-01T15:26:54.820Z,42.66
2023-03-01T15:29:31.039Z,43.13
2023-03-01T15:32:06.068Z,43.26
2023-03-01T15:34:38.495Z,43.52
2023-03-01T15:37:28.414Z,44.32
2023-03-01T15:39:58.149Z,44.72
2023-03-01T15:42:28.028Z,44.76
2023-03-01T15:45:18.042Z,44.83
2023-03-01T15:47:51.142Z,46.24
2023-03-01T15:50:38.586Z,46.22
2023-03-01T15:53:09.170Z,46.39
2023-03-01T15:55:36.639Z,46.73
2023-03-01T15:58:21.504Z,48.11
2023-03-01T16:01:00.906Z,48.60
2023-03-01T16:03:28.561Z,50.31
2023-03-01T16:05:55.801Z,53.95
2023-03-01T16:08:22.737Z,56.32
2023-03-01T16:10:52.254Z,57.75
2023-03-01T16:13:20.306Z,59.66
2023-03-01T16:15:48.203Z,61.93
2023-03-01T16:18:15.143Z,63.98
2023-03-01T16:20:42.302Z,65.08
2023-03-01T16:23:11.366Z,66.60
2023-03-01T16:25:39.008Z,68.82
2023-03-01T16:28:10.164Z,71.73
2023-03-01T16:30:40.557Z,73.49
2023-03-01T16:33:26.828Z,75.09
2023-03-01T16:35:56.473Z,75.30
2023-03-01T16:38:23.594Z,76.35
2023-03-01T16:40:52.565Z,78.43
2023-03-01T16:43:19.520Z,80.49
2023-03-01T16:45:47.627Z,82.11
2023-03-01T16:48:15.177Z,82.03
2023-03-01T16:50:42.548Z,83.74
2023-03-01T16:53:09.617Z,84.10
2023-03-01T16:55:36.963Z,84.20
2023-03-01T16:58:05.410Z,86.32
2023-03-01T17:00:32.719Z,87.25
2023-03-01T17:02:59.726Z,87.98
2023-03-01T17:05:27.234Z,88.41
2023-03-01T17:07:56.704Z,89.10
2023-03-01T17:10:24.200Z,91.02
2023-03-01T17:12:51.672Z,92.28
2023-03-01T17:15:18.971Z,92.31
2023-03-01T17:17:45.915Z,93.38
2023-03-01T17:20:13.780Z,93.73
2023-03-01T17:22:40.659Z,93.56
2023-03-01T17:25:12.297Z,93.27
2023-03-01T17:27:40.001Z,93.79
2023-03-01T17:30:11.425Z,94.60
2023-03-01T17:32:38.632Z,94.85
2023-03-01T17:35:06.521Z,94.89
2023-03-01T17:37:33.653Z,94.40
2023-03-01T17:40:00.808Z,94.61
2023-03-01T17:42:27.753Z,94.79
2023-03-01T17:44:54.952Z,95.34
2023-03-01T17:47:21.853Z,95.43
2023-03-01T17:49:49.020Z,95.53
2023-03-01T17:52:16.052Z,95.16
2023-03-01T17:54:43.273Z,94.90
2023-03-01T17:57:10.178Z,94.93
2023-03-01T17:59:37.680Z,94.18
2023-03-01T18:02:04.586Z,94.66
2023-03-01T18:04:32.587Z,95.07
2023-03-01T18:07:00.032Z,95.42
2023-03-01T18:09:28.386Z,96.61
2023-03-01T18:11:55.341Z,97.18
2023-03-01T18:14:22.757Z,97.55
2023-03-01T18:16:50.962Z,97.92
2023-03-01T18:19:18.289Z,97.89
2023-03-01T18:21:45.413Z,98.45
2023-03-01T18:24:12.597Z,98.22
2023-03-01T18:26:40.361Z,98.43
2023-03-01T18:29:08.373Z,98.58
2023-03-01T18:31:35.570Z,99.38
2023-03-01T18:34:02.998Z,99.74
2023-03-01T18:36:33.240Z,100.00
2023-03-01T18:39:03.508Z,100.00
2023-03-01T18:41:30.860Z,100.00
2023-03-01T18:43:58.585Z,100.00
2023-03-01T18:46:26.024Z,100.00
2023-03-01T18:48:54.507Z,100.00
2023-03-01T18:51:25.496Z,100.00
2023-03-01T18:53:52.956Z,100.00
2023-03-01T18:56:19.837Z,100.00
2023-03-01T18:58:47.287Z,100.00
2023-03-01T19:01:20.080Z,100.00
2023-03-01T19:03:47.893Z,100.00
2023-03-01T19:06:15.272Z,100.00
2023-03-01T19:08:44.437Z,100.00
2023-03-01T19:11:13.258Z,100.00
2023-03-01T19:13:41.005Z,100.00
2023-03-01T19:16:16.405Z,100.00
2023-03-01T19:18:50.256Z,100.00
2023-03-01T19:21:19.934Z,100.00
2023-03-01T19:23:48.870Z,100.00
2023-03-01T19:26:18.518Z,100.00
2023-03-01T19:28:46.558Z,100.00
2023-03-01T19:31:16.750Z,100.00
2023-03-01T19:33:44.333Z,100.00
2023-03-01T19:36:14.671Z,100.00
2023-03-01T19:38:43.141Z,100.00
2023-03-01T19:41:16.923Z,100.00
2023-03-01T19:43:45.679Z,100.00
2023-03-01T19:46:15.055Z,100.00
2023-03-01T19:48:44.587Z,100.00
2023-03-01T19:51:12.522Z,100.00
2023-03-01T19:53:40.765Z,100.00
2023-03-01T19:56:08.940Z,100.00
2023-03-01T19:58:36.649Z,100.00
2023-03-01T20:01:03.680Z,100.00
2023-03-01T20:03:33.857Z,100.00
2023-03-01T20:06:02.689Z,100.00
2023-03-01T20:08:32.072Z,100.00
2023-03-01T20:11:04.483Z,100.00
2023-03-01T20:13:31.715Z,100.00
2023-03-01T20:15:58.806Z,100.00
2023-03-01T20:18:26.809Z,100.00
2023-03-01T20:20:54.101Z,100.00
2023-03-01T20:23:22.213Z,100.00
2023-03-01T20:25:49.242Z,100.00
2023-03-01T20:28:17.975Z,100.00
2023-03-01T20:30:45.801Z,100.00
2023-03-01T20:33:13.159Z,100.00
2023-03-01T20:35:43.943Z,100.00
2023-03-01T20:38:11.177Z,100.00
2023-03-01T20:40:38.402Z,100.00
2023-03-01T20:43:05.612Z,100.00
2023-03-01T20:45:32.518Z,100.00
2023-03-01T20:47:59.749Z,100.00
2023-03-01T20:50:26.715Z,100.00
2023-03-01T20:52:53.984Z,100.00
2023-03-01T20:55:21.044Z,100.00
2023-03-01T20:57:48.238Z,100.00
2023-03-01T21:00:15.454Z,100.00
2023-03-01T21:02:44.041Z,100.00
2023-03-01T21:05:11.032Z,100.00
2023-03-01T21:07:38.371Z,100.00
2023-03-01T21:10:05.637Z,100.00
2023-03-01T21:12:32.910Z,100.00
2023-03-01T21:14:59.847Z,100.00
2023-03-01T21:17:26.996Z,100.00
2023-03-01T21:19:53.909Z,100.00
2023-03-01T21:22:21.070Z,100.00
2023-03-01T21:24:50.191Z,100.00
2023-03-01T21:27:18.863Z,100.00
2023-03-01T21:29:47.144Z,100.00
2023-03-01T21:32:14.921Z,100.00
2023-03-01T21:34:42.203Z,100.00
2023-03-01T21:37:10.790Z,100.00
2023-03-01T21:39:38.030Z,100.00
2023-03-01T21:42:06.010Z,100.00
2023-03-01T21:44:33.800Z,100.00
2023-03-01T21:47:01.398Z,100.00
2023-03-01T21:49:28.415Z,100.00
2023-03-01T21:51:56.082Z,100.00
2023-03-01T21:54:22.998Z,100.00
2023-03-01T21:56:51.106Z,100.00
2023-03-01T21:59:20.958Z,100.00
2023-03-01T22:01:49.654Z,100.00
2023-03-01T22:04:17.130Z,100.00
2023-03-01T22:06:46.835Z,100.00
2023-03-01T22:09:19.262Z,100.00
2023-03-01T22:11:54.015Z,100.00
2023-03-01T22:14:21.906Z,100.00
2023-03-01T22:16:51.756Z,100.00
2023-03-01T22:19:18.999Z,100.00
2023-03-01T22:21:49.886Z,100.00
2023-03-01T22:24:19.231Z,100.00
2023-03-01T22:26:48.400Z,100.00
2023-03-01T22:29:25.313Z,100.00
2023-03-01T22:31:53.822Z,100.00
2023-03-01T22:34:21.203Z,100.00
2023-03-01T22:36:48.946Z,100.00
2023-03-01T22:39:19.132Z,100.00
2023-03-01T22:41:47.759Z,100.00
2023-03-01T22:44:18.260Z,100.00
2023-03-01T22:46:45.570Z,100.00
2023-03-01T22:49:12.716Z,100.00
2023-03-01T22:51:42.459Z,100.00
2023-03-01T22:54:11.095Z,100.00
2023-03-01T22:56:39.217Z,100.00
2023-03-01T22:59:11.455Z,100.00
2023-03-01T23:01:40.190Z,100.00
2023-03-01T23:04:07.532Z,100.00
2023-03-01T23:06:50.219Z,100.00
2023-03-01T23:09:30.973Z,100.00
2023-03-01T23:11:59.973Z,100.00
2023-03-01T23:14:31.247Z,100.00
2023-03-01T23:17:00.733Z,100.00
2023-03-01T23:19:28.768Z,100.00
2023-03-01T23:21:57.296Z,100.00
2023-03-01T23:24:31.881Z,100.00
2023-03-01T23:27:03.047Z,100.00
2023-03-01T23:29:31.314Z,100.00
2023-03-01T23:31:59.879Z,100.00
2023-03-01T23:34:27.493Z,100.00
2023-03-01T23:36:55.755Z,100.00
2023-03-01T23:39:22.781Z,100.00
2023-03-01T23:41:50.200Z,100.00
2023-03-01T23:44:19.536Z,100.00
2023-03-01T23:46:47.961Z,100.00
2023-03-01T23:49:18.787Z,100.00
2023-03-01T23:51:49.703Z,100.00
2023-03-01T23:54:22.028Z,100.00
2023-03-01T23:56:49.360Z,100.00
2023-03-01T23:59:19.253Z,100.00
